Time;durP1;ratioP1;P1;durP2;ratioP2;P2;SDS_P1;SDS_P2;PMS_P1;PMS_P2;Temp;Humidity;BMP_temperature;BMP_pressure;BME280_temperature;BME280_humidity;BME280_pressure;Samples;Min_cycle;Max_cycle;Signal;HPM_P1;HPM_P2
2021/06/04 00:00:41;;;;;;;2.37;1.40;;;18.20;98.00;;;;;;5067902;28;20544;-71
2021/06/04 00:03:09;;;;;;;1.20;1.10;;;18.30;98.00;;;;;;5071301;28;20974;-71
2021/06/04 00:05:41;;;;;;;1.40;1.20;;;18.30;98.00;;;;;;5068090;28;20476;-70
2021/06/04 00:08:09;;;;;;;1.40;1.20;;;18.30;98.00;;;;;;5071055;28;20561;-71
2021/06/04 00:10:39;;;;;;;1.50;1.33;;;18.30;98.00;;;;;;5067192;28;20449;-71
2021/06/04 00:13:21;;;;;;;1.40;1.10;;;18.00;98.00;;;;;;5070990;28;20456;-71
2021/06/04 00:15:50;;;;;;;2.73;1.57;;;18.00;98.00;;;;;;5068177;28;20489;-71
2021/06/04 00:18:17;;;;;;;2.20;1.37;;;17.90;98.00;;;;;;5070797;28;20464;-71
2021/06/04 00:20:44;;;;;;;1.30;1.20;;;17.90;98.00;;;;;;5067141;28;20866;-71
2021/06/04 00:23:11;;;;;;;1.20;1.10;;;17.80;98.00;;;;;;5069563;28;20950;-71
2021/06/04 00:25:38;;;;;;;1.67;1.60;;;17.70;98.00;;;;;;5068398;28;20827;-71
2021/06/04 00:28:05;;;;;;;2.50;1.50;;;17.50;98.00;;;;;;5070660;28;20481;-71
2021/06/04 00:30:32;;;;;;;1.63;1.40;;;17.50;98.00;;;;;;5068686;28;20464;-71
2021/06/04 00:33:00;;;;;;;1.30;1.10;;;17.40;98.00;;;;;;5069389;28;20489;-71
2021/06/04 00:35:28;;;;;;;1.30;1.30;;;17.40;98.00;;;;;;5067981;28;20464;-71
2021/06/04 00:37:54;;;;;;;1.40;1.40;;;17.40;98.00;;;;;;5070709;28;20464;-71
2021/06/04 00:40:24;;;;;;;1.20;1.10;;;17.40;98.00;;;;;;5068627;28;20529;-71
2021/06/04 00:42:50;;;;;;;1.80;1.60;;;17.30;98.00;;;;;;5070566;28;20453;-71
2021/06/04 00:45:21;;;;;;;1.33;1.23;;;17.30;98.00;;;;;;5067741;28;20943;-70
2021/06/04 00:47:48;;;;;;;1.73;1.67;;;17.30;98.00;;;;;;5070476;28;20492;-71
2021/06/04 00:50:22;;;;;;;1.70;1.30;;;17.20;98.00;;;;;;5068403;28;20488;-71
2021/06/04 00:52:49;;;;;;;1.83;1.30;;;17.20;98.00;;;;;;5070389;28;20523;-71
2021/06/04 00:55:19;;;;;;;1.87;1.40;;;17.20;98.00;;;;;;5067838;28;20891;-71
2021/06/04 00:57:46;;;;;;;1.67;1.10;;;17.10;98.00;;;;;;5070421;28;20509;-71
2021/06/04 01:00:22;;;;;;;1.30;1.20;;;17.00;98.00;;;;;;5066952;28;20464;-71
2021/06/04 01:02:48;;;;;;;1.20;1.07;;;17.00;98.00;;;;;;5070444;28;20464;-71
2021/06/04 01:05:17;;;;;;;1.30;1.10;;;16.90;98.00;;;;;;5068166;28;20457;-71
2021/06/04 01:07:52;;;;;;;1.93;1.77;;;16.90;98.00;;;;;;5070598;28;20566;-71
2021/06/04 01:10:29;;;;;;;1.30;1.30;;;16.90;98.00;;;;;;5068762;28;20484;-70
2021/06/04 01:13:01;;;;;;;1.60;1.30;;;16.80;98.00;;;;;;5074380;28;20491;-70
2021/06/04 01:15:55;;;;;;;1.70;1.20;;;17.00;98.00;;;;;;5071559;28;20453;-70
2021/06/04 01:18:33;;;;;;;1.30;1.10;;;17.10;98.00;;;;;;5073955;28;20465;-71
2021/06/04 01:21:05;;;;;;;1.50;1.20;;;17.10;98.00;;;;;;5071288;28;20472;-72
2021/06/04 01:23:46;;;;;;;1.20;1.10;;;17.00;98.00;;;;;;5073952;28;20485;-71
2021/06/04 01:26:17;;;;;;;2.07;1.40;;;17.00;98.00;;;;;;5071393;28;20545;-71
2021/06/04 01:28:47;;;;;;;2.13;1.33;;;16.90;98.00;;;;;;5073925;28;20491;-71
2021/06/04 01:31:18;;;;;;;1.93;1.40;;;16.80;98.00;;;;;;5071389;28;20863;-71
2021/06/04 01:33:58;;;;;;;1.37;1.23;;;16.70;98.00;;;;;;5073824;28;20459;-71
2021/06/04 01:36:28;;;;;;;1.73;1.30;;;16.50;98.00;;;;;;5071400;28;20927;-71
2021/06/04 01:38:57;;;;;;;2.90;1.60;;;16.50;98.00;;;;;;5073695;28;20468;-71
2021/06/04 01:41:29;;;;;;;1.43;1.20;;;16.50;98.00;;;;;;5071080;28;20461;-70
2021/06/04 01:44:00;;;;;;;1.60;1.30;;;16.70;98.00;;;;;;5073709;28;20739;-71
2021/06/04 01:46:31;;;;;;;1.20;1.20;;;16.60;98.00;;;;;;5070897;28;21047;-71
2021/06/04 01:49:02;;;;;;;1.77;1.50;;;16.60;98.00;;;;;;5073330;28;20962;-71
2021/06/04 01:51:41;;;;;;;1.60;1.30;;;16.50;98.00;;;;;;5071121;28;20481;-71
2021/06/04 01:54:10;;;;;;;1.30;1.30;;;16.40;98.00;;;;;;5073402;28;20846;-70
2021/06/04 01:56:44;;;;;;;1.60;1.40;;;16.50;98.00;;;;;;5071322;28;20525;-71
2021/06/04 01:59:16;;;;;;;2.70;1.50;;;16.50;98.00;;;;;;5073411;28;20551;-71
2021/06/04 02:01:45;;;;;;;1.30;1.20;;;16.50;98.00;;;;;;5072986;28;20539;-71
2021/06/04 02:04:16;;;;;;;1.20;1.00;;;16.40;98.00;;;;;;5073343;28;20477;-71
2021/06/04 02:06:43;;;;;;;1.47;1.30;;;16.30;98.00;;;;;;5071687;28;21018;-72
2021/06/04 02:09:15;;;;;;;1.20;1.20;;;16.20;98.00;;;;;;5073322;28;20575;-71
2021/06/04 02:11:44;;;;;;;1.20;1.20;;;16.20;98.00;;;;;;5070976;28;20464;-71
2021/06/04 02:14:15;;;;;;;2.00;1.40;;;16.10;98.00;;;;;;5073145;28;20449;-70
2021/06/04 02:16:54;;;;;;;1.70;1.50;;;16.10;98.00;;;;;;5070635;28;20481;-70
2021/06/04 02:19:32;;;;;;;1.40;1.20;;;16.10;98.00;;;;;;5070475;28;20461;-72
2021/06/04 02:22:04;;;;;;;1.20;1.10;;;16.10;98.00;;;;;;5071861;28;20522;-70
2021/06/04 02:24:37;;;;;;;1.80;1.30;;;16.10;98.00;;;;;;5070340;28;20616;-71
2021/06/04 02:27:10;;;;;;;1.20;1.10;;;16.10;98.00;;;;;;5072928;28;20569;-71
2021/06/04 02:29:42;;;;;;;3.53;1.40;;;16.00;98.00;;;;;;5070530;28;20480;-70
2021/06/04 02:32:14;;;;;;;1.30;1.20;;;16.00;98.00;;;;;;5072891;28;20518;-71
2021/06/04 02:34:44;;;;;;;1.20;1.13;;;16.00;98.00;;;;;;5070378;28;20819;-70
2021/06/04 02:37:16;;;;;;;1.30;1.10;;;16.00;98.00;;;;;;5073145;28;20532;-70
2021/06/04 02:39:47;;;;;;;1.30;1.07;;;16.20;98.00;;;;;;5070191;28;20649;-70
2021/06/04 02:42:18;;;;;;;1.97;1.70;;;16.40;98.00;;;;;;5072767;28;20582;-71
2021/06/04 02:44:50;;;;;;;1.67;1.40;;;16.20;98.00;;;;;;5070017;28;20453;-70
2021/06/04 02:47:19;;;;;;;1.40;1.13;;;16.20;98.00;;;;;;5072686;28;21063;-70
2021/06/04 02:49:46;;;;;;;1.73;1.27;;;16.00;98.00;;;;;;5069777;28;20539;-72
2021/06/04 02:52:27;;;;;;;2.07;1.20;;;15.90;98.00;;;;;;5072592;28;20506;-70
2021/06/04 02:54:54;;;;;;;1.20;1.20;;;15.90;98.00;;;;;;5069722;28;20986;-71
2021/06/04 02:57:25;;;;;;;1.77;1.30;;;16.00;98.00;;;;;;5072365;28;20461;-71
2021/06/04 02:59:52;;;;;;;1.30;1.20;;;16.10;98.00;;;;;;5069696;28;20489;-70
2021/06/04 03:02:21;;;;;;;1.50;1.20;;;16.00;98.00;;;;;;5072318;28;20461;-71
2021/06/04 03:04:52;;;;;;;1.50;1.30;;;16.10;98.00;;;;;;5069676;28;20461;-71
2021/06/04 03:07:25;;;;;;;3.50;1.40;;;16.20;98.00;;;;;;5072102;28;20484;-70
2021/06/04 03:09:54;;;;;;;1.20;1.10;;;16.30;98.00;;;;;;5069582;28;20797;-71
2021/06/04 03:12:26;;;;;;;1.47;1.33;;;16.20;98.00;;;;;;5072081;28;20585;-70
2021/06/04 03:14:55;;;;;;;1.53;1.10;;;16.10;98.00;;;;;;5069299;28;21045;-71
2021/06/04 03:17:26;;;;;;;1.40;1.30;;;16.10;98.00;;;;;;5072024;28;20875;-70
2021/06/04 03:19:53;;;;;;;1.50;1.33;;;16.10;98.00;;;;;;5069218;28;20457;-70
2021/06/04 03:22:25;;;;;;;1.67;1.40;;;16.10;98.00;;;;;;5070653;28;20469;-71
2021/06/04 03:24:52;;;;;;;1.30;1.27;;;16.10;98.00;;;;;;5069384;28;20518;-70
2021/06/04 03:27:22;;;;;;;1.40;1.23;;;16.30;98.00;;;;;;5071680;28;21006;-70
2021/06/04 03:29:49;;;;;;;4.00;1.60;;;16.10;98.00;;;;;;5069071;28;20453;-71
2021/06/04 03:32:18;;;;;;;2.17;1.47;;;15.90;98.00;;;;;;5071542;28;20496;-71
2021/06/04 03:34:46;;;;;;;1.20;1.00;;;15.80;98.00;;;;;;5067556;28;20453;-70
2021/06/04 03:37:14;;;;;;;2.07;1.53;;;15.80;98.00;;;;;;5071571;28;20452;-70
2021/06/04 03:39:42;;;;;;;1.47;1.37;;;15.90;98.00;;;;;;5068983;28;20457;-70
2021/06/04 03:42:12;;;;;;;1.20;1.20;;;16.00;98.00;;;;;;5071426;28;20492;-70
2021/06/04 03:44:42;;;;;;;1.70;1.20;;;16.00;98.00;;;;;;5068839;28;20829;-71
2021/06/04 03:47:10;;;;;;;1.50;1.40;;;16.10;98.00;;;;;;5071485;28;20530;-70
2021/06/04 03:49:37;;;;;;;1.30;1.20;;;16.00;98.00;;;;;;5069021;28;20456;-70
2021/06/04 03:52:10;;;;;;;1.40;1.30;;;16.00;98.00;;;;;;5071477;28;20535;-71
2021/06/04 03:54:41;;;;;;;1.50;1.20;;;16.10;98.00;;;;;;5068893;28;20556;-70
2021/06/04 03:57:10;;;;;;;1.20;1.07;;;16.00;98.00;;;;;;5071251;28;20919;-70
2021/06/04 03:59:39;;;;;;;1.50;1.27;;;16.00;98.00;;;;;;5068814;28;21124;-70
2021/06/04 04:02:08;;;;;;;1.57;1.27;;;15.90;98.00;;;;;;5071262;28;20820;-70
2021/06/04 04:04:35;;;;;;;1.20;1.10;;;15.90;98.00;;;;;;5068522;28;20547;-70
2021/06/04 04:07:02;;;;;;;1.30;1.20;;;15.80;98.00;;;;;;5071083;28;20970;-71
2021/06/04 04:09:29;;;;;;;1.73;1.40;;;15.90;98.00;;;;;;5070377;28;20601;-70
2021/06/04 04:11:55;;;;;;;2.60;1.20;;;16.00;98.00;;;;;;5069958;28;20500;-71
2021/06/04 04:14:24;;;;;;;1.30;1.30;;;16.00;98.00;;;;;;5071049;28;20492;-71
2021/06/04 04:16:53;;;;;;;1.20;1.00;;;16.10;98.00;;;;;;5068334;28;20449;-70
2021/06/04 04:19:20;;;;;;;1.20;1.00;;;16.00;98.00;;;;;;5070994;28;20518;-70
2021/06/04 04:21:47;;;;;;;1.77;1.13;;;16.00;98.00;;;;;;5068183;28;20465;-70
2021/06/04 04:24:16;;;;;;;1.50;1.30;;;16.10;98.00;;;;;;5070869;28;20542;-70
2021/06/04 04:26:43;;;;;;;1.87;1.40;;;16.10;98.00;;;;;;5068135;28;20453;-71
2021/06/04 04:29:10;;;;;;;1.83;1.20;;;16.30;98.00;;;;;;5070796;28;20485;-70
2021/06/04 04:31:40;;;;;;;1.43;1.30;;;16.50;98.00;;;;;;5068199;28;20456;-70
2021/06/04 04:34:08;;;;;;;2.10;1.13;;;16.60;98.00;;;;;;5070677;28;20538;-70
2021/06/04 04:36:38;;;;;;;1.70;1.27;;;16.50;98.00;;;;;;5068222;28;20477;-70
2021/06/04 04:39:06;;;;;;;1.30;1.10;;;16.60;98.00;;;;;;5070691;28;20970;-70
2021/06/04 04:41:32;;;;;;;1.20;1.10;;;16.60;98.00;;;;;;5068078;28;20460;-70
2021/06/04 04:43:59;;;;;;;1.47;1.40;;;16.60;98.00;;;;;;5070542;28;20496;-71
2021/06/04 04:46:29;;;;;;;1.30;1.20;;;16.60;98.00;;;;;;5067601;28;20886;-70
2021/06/04 04:48:55;;;;;;;1.20;1.13;;;16.80;98.00;;;;;;5070492;28;20449;-70
2021/06/04 04:51:25;;;;;;;2.47;1.40;;;16.50;98.00;;;;;;5068156;28;20823;-70
2021/06/04 04:53:52;;;;;;;1.57;1.33;;;16.60;98.00;;;;;;5070454;28;20539;-71
2021/06/04 04:56:19;;;;;;;2.50;1.70;;;16.70;98.00;;;;;;5068267;28;20939;-70
2021/06/04 04:58:46;;;;;;;1.60;1.40;;;16.90;98.00;;;;;;5070669;28;20491;-71
2021/06/04 05:01:14;;;;;;;1.53;1.40;;;17.10;98.00;;;;;;5068124;28;20449;-70
2021/06/04 05:03:40;;;;;;;1.30;1.10;;;17.00;98.00;;;;;;5070652;28;20498;-70
2021/06/04 05:06:08;;;;;;;1.20;1.20;;;17.10;98.00;;;;;;5067972;28;20449;-70
2021/06/04 05:08:37;;;;;;;1.80;1.00;;;17.30;98.00;;;;;;5070339;28;20634;-70
2021/06/04 05:11:05;;;;;;;1.50;1.40;;;17.50;98.00;;;;;;5067892;28;20458;-70
2021/06/04 05:13:32;;;;;;;1.60;1.40;;;17.80;98.00;;;;;;5070348;28;20457;-71
2021/06/04 05:15:59;;;;;;;2.70;1.60;;;17.90;98.00;;;;;;5067848;28;20453;-70
2021/06/04 05:18:26;;;;;;;1.30;1.20;;;18.00;98.00;;;;;;5070239;28;20464;-70
2021/06/04 05:20:53;;;;;;;1.73;1.30;;;18.00;98.00;;;;;;5066390;28;20463;-70
2021/06/04 05:23:19;;;;;;;1.83;1.43;;;18.10;98.00;;;;;;5070345;28;20534;-71
2021/06/04 05:25:49;;;;;;;1.83;1.53;;;18.20;98.00;;;;;;5067657;28;20449;-70
2021/06/04 05:28:19;;;;;;;1.60;1.30;;;18.00;98.00;;;;;;5070218;28;20949;-70
2021/06/04 05:30:47;;;;;;;1.20;1.20;;;18.00;98.00;;;;;;5067445;28;20460;-70
2021/06/04 05:33:16;;;;;;;1.20;1.20;;;18.10;98.00;;;;;;5070323;28;20547;-71
2021/06/04 05:35:43;;;;;;;1.20;1.10;;;18.20;98.00;;;;;;5068380;28;20506;-71
2021/06/04 05:38:11;;;;;;;1.70;1.47;;;18.30;98.00;;;;;;5071298;28;20457;-70
2021/06/04 05:40:39;;;;;;;1.63;1.50;;;18.40;98.00;;;;;;5067874;28;20492;-70
2021/06/04 05:43:10;;;;;;;1.33;1.23;;;18.50;98.00;;;;;;5070895;28;20796;-70
2021/06/04 05:45:40;;;;;;;1.20;1.10;;;18.60;98.00;;;;;;5068514;28;20459;-71
2021/06/04 05:48:07;;;;;;;2.20;1.40;;;18.70;98.00;;;;;;5070200;28;20905;-71
2021/06/04 05:50:38;;;;;;;1.50;1.30;;;18.60;98.00;;;;;;5067493;28;20489;-71
2021/06/04 05:53:06;;;;;;;1.30;1.10;;;18.60;98.00;;;;;;5070008;28;20459;-71
2021/06/04 05:55:35;;;;;;;1.30;1.23;;;18.50;98.00;;;;;;5067346;28;20468;-72
2021/06/04 05:58:02;;;;;;;1.20;1.00;;;18.40;98.00;;;;;;5071855;28;20457;-71
2021/06/04 06:00:35;;;;;;;2.60;1.40;;;18.50;98.00;;;;;;5071197;28;20453;-71
2021/06/04 06:03:02;;;;;;;1.60;1.47;;;18.50;98.00;;;;;;5073458;28;20657;-72
2021/06/04 06:05:29;;;;;;;2.17;1.47;;;18.60;98.00;;;;;;5070963;28;20489;-71
2021/06/04 06:07:55;;;;;;;1.30;1.20;;;18.70;98.00;;;;;;5072004;28;20496;-71
2021/06/04 06:10:22;;;;;;;1.50;1.30;;;18.80;98.00;;;;;;5070282;28;20485;-72
2021/06/04 06:12:50;;;;;;;3.03;1.60;;;18.90;98.00;;;;;;5073315;28;20468;-71
2021/06/04 06:15:19;;;;;;;1.90;1.33;;;19.10;98.00;;;;;;5069616;28;20483;-70
2021/06/04 06:17:47;;;;;;;1.77;1.77;;;19.20;98.00;;;;;;5073366;28;20823;-71
2021/06/04 06:20:17;;;;;;;2.03;1.40;;;19.30;98.00;;;;;;5070827;28;21033;-72
2021/06/04 06:22:45;;;;;;;1.60;1.30;;;19.40;98.00;;;;;;5072955;28;20564;-72
2021/06/04 06:25:14;;;;;;;1.80;1.53;;;19.50;98.00;;;;;;5070486;28;20547;-72
2021/06/04 06:27:41;;;;;;;1.83;1.70;;;19.70;98.00;;;;;;5072987;28;20540;-71
2021/06/04 06:30:12;;;;;;;2.80;1.57;;;19.80;98.00;;;;;;5070521;28;20485;-71
2021/06/04 06:32:39;;;;;;;1.63;1.60;;;19.90;98.00;;;;;;5072751;28;20460;-72
2021/06/04 06:35:08;;;;;;;1.77;1.53;;;20.10;98.00;;;;;;5070245;28;20480;-71
2021/06/04 06:37:35;;;;;;;1.30;1.30;;;20.10;98.00;;;;;;5072722;28;20481;-72
2021/06/04 06:40:02;;;;;;;1.73;1.43;;;20.10;98.00;;;;;;5070267;28;20508;-72
2021/06/04 06:42:28;;;;;;;1.60;1.20;;;20.20;98.00;;;;;;5072695;28;20456;-72
2021/06/04 06:44:54;;;;;;;1.73;1.47;;;20.20;98.00;;;;;;5070007;28;20456;-71
2021/06/04 06:47:21;;;;;;;2.17;1.57;;;20.30;98.00;;;;;;5072574;28;20507;-71
2021/06/04 06:49:48;;;;;;;2.33;1.50;;;20.40;98.00;;;;;;5068460;28;20464;-74
2021/06/04 06:52:16;;;;;;;1.97;1.47;;;20.50;98.00;;;;;;5072632;28;20940;-71
2021/06/04 06:54:43;;;;;;;1.53;1.37;;;20.70;98.00;;;;;;5072582;28;20510;-71
2021/06/04 06:57:10;;;;;;;2.43;1.57;;;20.90;98.00;;;;;;5070824;28;20465;-72
2021/06/04 06:59:36;;;;;;;2.03;1.37;;;21.00;98.00;;;;;;5072322;28;20492;-72
2021/06/04 07:02:08;;;;;;;2.23;1.50;;;21.10;98.00;;;;;;5068146;28;20867;-71
2021/06/04 07:04:35;;;;;;;1.97;1.40;;;21.20;98.00;;;;;;5072267;28;20460;-72
2021/06/04 07:07:03;;;;;;;1.50;1.40;;;21.30;98.00;;;;;;5069798;28;22354;-72
2021/06/04 07:09:31;;;;;;;1.27;1.27;;;21.50;98.00;;;;;;5070405;28;20536;-72
2021/06/04 07:11:58;;;;;;;1.50;1.20;;;21.60;98.00;;;;;;5068587;28;20461;-75
2021/06/04 07:14:28;;;;;;;1.90;1.50;;;21.80;98.00;;;;;;5070418;28;20819;-72
2021/06/04 07:16:55;;;;;;;1.60;1.40;;;21.90;98.00;;;;;;5069207;28;20481;-71
2021/06/04 07:19:22;;;;;;;3.30;1.67;;;22.10;98.00;;;;;;5071460;28;20705;-72
2021/06/04 07:21:49;;;;;;;1.60;1.60;;;22.30;98.00;;;;;;5068801;28;20472;-72
2021/06/04 07:24:16;;;;;;;1.30;1.20;;;22.30;98.00;;;;;;5071322;28;20456;-72
2021/06/04 07:26:46;;;;;;;2.20;1.60;;;22.40;98.00;;;;;;5068509;28;20460;-70
2021/06/04 07:29:12;;;;;;;3.00;1.40;;;22.50;98.00;;;;;;5071081;28;20569;-70
2021/06/04 07:31:39;;;;;;;1.63;1.50;;;22.40;98.00;;;;;;5069183;28;20463;-71
2021/06/04 07:34:06;;;;;;;2.80;1.57;;;22.50;98.00;;;;;;5071655;28;20488;-72
2021/06/04 07:36:37;;;;;;;1.40;1.30;;;22.60;98.00;;;;;;5069212;28;20477;-71
2021/06/04 07:39:13;;;;;;;1.63;1.30;;;22.80;98.00;;;;;;5071441;28;20449;-71
2021/06/04 07:41:40;;;;;;;1.40;1.30;;;23.10;97.50;;;;;;5069145;28;20488;-71
2021/06/04 07:44:08;;;;;;;2.47;2.13;;;23.40;96.50;;;;;;5071410;28;20453;-71
2021/06/04 07:46:35;;;;;;;2.73;1.60;;;23.80;95.20;;;;;;5068767;28;20518;-73
2021/06/04 07:49:02;;;;;;;2.20;1.60;;;24.00;98.00;;;;;;5071480;28;20546;-73
2021/06/04 07:51:31;;;;;;;2.47;1.43;;;24.00;98.00;;;;;;5068763;28;20488;-73
2021/06/04 07:53:58;;;;;;;1.50;1.50;;;24.10;98.00;;;;;;5071292;28;20705;-73
2021/06/04 07:56:25;;;;;;;2.13;1.60;;;24.10;98.00;;;;;;5068822;28;20491;-73
2021/06/04 07:58:51;;;;;;;1.70;1.50;;;24.20;98.00;;;;;;5071217;28;20542;-74
2021/06/04 08:01:20;;;;;;;1.77;1.53;;;24.30;98.00;;;;;;5068553;28;20480;-72
2021/06/04 08:03:47;;;;;;;1.20;1.10;;;24.30;98.00;;;;;;5071005;28;20464;-72
2021/06/04 08:06:16;;;;;;;1.80;1.50;;;24.40;98.00;;;;;;5068497;28;20480;-73
2021/06/04 08:08:43;;;;;;;1.50;1.40;;;24.40;98.00;;;;;;5070805;28;20491;-73
2021/06/04 08:11:17;;;;;;;2.13;1.70;;;24.40;98.00;;;;;;5068323;28;20966;-73
2021/06/04 08:13:45;;;;;;;2.03;1.50;;;24.40;98.00;;;;;;5070802;28;20834;-73
2021/06/04 08:16:14;;;;;;;1.77;1.50;;;24.40;98.00;;;;;;5068316;28;20467;-73
2021/06/04 08:18:42;;;;;;;1.80;1.70;;;24.40;97.50;;;;;;5070738;28;20460;-72
2021/06/04 08:21:12;;;;;;;2.23;1.50;;;24.40;97.70;;;;;;5067124;28;20789;-73
2021/06/04 08:23:41;;;;;;;1.50;1.33;;;24.50;98.00;;;;;;5070690;28;20539;-71
2021/06/04 08:26:10;;;;;;;2.63;1.60;;;24.60;98.00;;;;;;5074315;28;20488;-75
2021/06/04 08:28:38;;;;;;;1.63;1.43;;;24.80;96.50;;;;;;5066206;28;20492;-72
2021/06/04 08:31:07;;;;;;;1.30;1.27;;;24.80;98.00;;;;;;5068110;28;20453;-72
2021/06/04 08:33:39;;;;;;;1.30;1.30;;;24.90;96.70;;;;;;5070728;28;20893;-72
2021/06/04 08:36:13;;;;;;;1.80;1.70;;;24.80;97.20;;;;;;5067538;28;20485;-73
2021/06/04 08:38:41;;;;;;;1.73;1.50;;;24.70;96.70;;;;;;5070745;28;20822;-72
2021/06/04 08:41:23;;;;;;;1.87;1.30;;;24.70;97.20;;;;;;5068032;28;20460;-73
2021/06/04 08:44:01;;;;;;;2.03;1.77;;;24.80;97.60;;;;;;5068604;28;20464;-73
2021/06/04 08:46:32;;;;;;;1.43;1.43;;;24.90;97.30;;;;;;5068332;28;20973;-72
2021/06/04 08:49:05;;;;;;;1.50;1.40;;;24.90;97.30;;;;;;5070868;28;20480;-73
2021/06/04 08:51:37;;;;;;;1.43;1.23;;;24.90;97.30;;;;;;5068169;28;20461;-73
2021/06/04 08:54:30;;;;;;;1.43;1.30;;;24.90;96.70;;;;;;5070707;28;20492;-74
2021/06/04 08:57:02;;;;;;;2.70;1.50;;;25.10;97.10;;;;;;5067973;28;20894;-73
2021/06/04 08:59:30;;;;;;;1.70;1.30;;;25.20;95.90;;;;;;5070668;28;20448;-72
2021/06/04 09:01:59;;;;;;;3.23;1.97;;;25.40;96.30;;;;;;5067780;28;20483;-73
2021/06/04 09:04:30;;;;;;;1.80;1.57;;;25.50;96.00;;;;;;5070461;28;20488;-73
2021/06/04 09:07:05;;;;;;;1.30;1.20;;;25.70;95.50;;;;;;5067608;28;20503;-73
2021/06/04 09:09:36;;;;;;;1.40;1.23;;;25.80;94.60;;;;;;5070389;28;20839;-72
2021/06/04 09:12:07;;;;;;;1.40;1.30;;;26.00;94.10;;;;;;5067878;28;20492;-73
2021/06/04 09:14:35;;;;;;;1.80;1.50;;;26.10;94.40;;;;;;5080561;28;20479;-73
2021/06/04 09:17:09;;;;;;;1.90;1.63;;;26.30;91.90;;;;;;5088235;28;20452;-73
2021/06/04 09:19:56;;;;;;;2.10;1.70;;;26.30;90.90;;;;;;5075369;28;20452;-73
2021/06/04 09:22:26;;;;;;;1.30;1.10;;;26.20;90.60;;;;;;5067696;28;20464;-73
2021/06/04 09:24:53;;;;;;;2.30;1.43;;;26.30;90.90;;;;;;5070139;28;20562;-73
2021/06/04 09:27:31;;;;;;;2.10;1.73;;;26.30;90.20;;;;;;5066130;28;20542;-72
2021/06/04 09:30:24;;;;;;;2.20;1.50;;;26.30;89.70;;;;;;5070081;28;20510;-73
2021/06/04 09:33:19;;;;;;;1.40;1.40;;;26.40;88.80;;;;;;5059372;28;20967;-73
2021/06/04 09:35:58;;;;;;;1.43;1.43;;;26.60;87.90;;;;;;5057783;28;20531;-73
2021/06/04 09:38:35;;;;;;;1.50;1.37;;;26.70;87.30;;;;;;5073512;28;20558;-72
2021/06/04 09:41:34;;;;;;;2.00;1.63;;;26.80;88.80;;;;;;5071206;28;20451;-74
2021/06/04 09:44:13;;;;;;;2.00;1.40;;;26.90;87.40;;;;;;5073782;28;20445;-74
2021/06/04 09:46:43;;;;;;;1.80;1.50;;;27.00;86.40;;;;;;5071239;28;20453;-73
2021/06/04 09:49:09;;;;;;;1.60;1.40;;;27.10;84.40;;;;;;5073630;28;20929;-71
2021/06/04 09:51:38;;;;;;;2.13;1.53;;;27.20;83.20;;;;;;5070996;28;20444;-72
2021/06/04 09:54:26;;;;;;;1.57;1.20;;;27.30;84.40;;;;;;5073680;28;20457;-72
2021/06/04 09:57:06;;;;;;;1.50;1.30;;;27.60;82.50;;;;;;5071073;28;20532;-71
2021/06/04 09:59:33;;;;;;;1.40;1.20;;;27.80;81.10;;;;;;5073668;28;20854;-73
2021/06/04 10:01:59;;;;;;;1.60;1.50;;;27.90;81.30;;;;;;5071050;28;20464;-72
2021/06/04 10:04:30;;;;;;;2.03;1.70;;;28.00;81.50;;;;;;5073477;28;20582;-73
2021/06/04 10:07:05;;;;;;;3.70;1.70;;;28.10;79.50;;;;;;5070007;28;20863;-73
2021/06/04 10:09:40;;;;;;;1.50;1.30;;;28.10;79.30;;;;;;5073438;28;20977;-73
2021/06/04 10:12:17;;;;;;;1.20;1.20;;;28.10;80.00;;;;;;5071112;28;20467;-72
2021/06/04 10:14:51;;;;;;;1.80;1.47;;;28.20;81.30;;;;;;5073144;28;20448;-73
2021/06/04 10:17:43;;;;;;;2.17;1.80;;;28.40;79.70;;;;;;5070851;28;20460;-72
2021/06/04 10:20:33;;;;;;;2.83;1.47;;;28.50;81.10;;;;;;5068314;28;20468;-74
2021/06/04 10:23:10;;;;;;;1.47;1.30;;;28.70;79.50;;;;;;5088716;28;20453;-72
2021/06/04 10:25:44;;;;;;;1.50;1.30;;;28.60;79.60;;;;;;5070506;28;20506;-73
2021/06/04 10:28:31;;;;;;;1.73;1.50;;;28.50;79.30;;;;;;5072987;28;20553;-73
2021/06/04 10:31:02;;;;;;;1.40;1.40;;;28.30;79.30;;;;;;5070582;28;20465;-72
2021/06/04 10:33:37;;;;;;;2.70;1.27;;;28.20;79.70;;;;;;5072915;28;20453;-73
2021/06/04 10:36:09;;;;;;;2.53;1.50;;;27.90;81.30;;;;;;5070513;28;20828;-72
2021/06/04 10:38:39;;;;;;;1.60;1.50;;;27.70;81.40;;;;;;5072851;28;20449;-72
2021/06/04 10:41:11;;;;;;;1.80;1.30;;;27.70;81.70;;;;;;5070445;28;20959;-73
2021/06/04 10:43:51;;;;;;;1.93;1.30;;;27.40;82.50;;;;;;5072020;28;20970;-72
2021/06/04 10:46:23;;;;;;;2.00;1.50;;;27.20;82.80;;;;;;5069979;28;20949;-73
2021/06/04 10:49:02;;;;;;;2.47;1.50;;;27.00;84.10;;;;;;5072583;28;20608;-72
2021/06/04 10:51:35;;;;;;;1.70;1.50;;;26.70;84.50;;;;;;5070135;28;20467;-72
2021/06/04 10:54:19;;;;;;;1.47;1.23;;;26.60;85.00;;;;;;5072468;28;20456;-73
2021/06/04 10:56:53;;;;;;;1.60;1.20;;;26.50;85.70;;;;;;5069785;28;20464;-73
2021/06/04 10:59:32;;;;;;;1.50;1.33;;;26.40;87.30;;;;;;5071997;28;20463;-73
2021/06/04 11:02:02;;;;;;;1.77;1.40;;;26.40;88.10;;;;;;5069072;28;20457;-70
2021/06/04 11:04:39;;;;;;;2.00;1.40;;;26.30;89.20;;;;;;5071986;28;20460;-71
2021/06/04 11:07:16;;;;;;;2.07;1.30;;;26.20;90.40;;;;;;5067994;28;20872;-72
2021/06/04 11:10:00;;;;;;;2.23;1.50;;;26.20;91.90;;;;;;5071840;28;20460;-72
2021/06/04 11:13:03;;;;;;;1.60;1.30;;;26.10;92.60;;;;;;5069182;28;20460;-74
2021/06/04 11:15:46;;;;;;;1.87;1.50;;;25.90;94.00;;;;;;5068766;28;20457;-73
2021/06/04 11:18:30;;;;;;;1.83;1.57;;;25.90;93.90;;;;;;5071525;28;20453;-73
2021/06/04 11:20:59;;;;;;;1.50;1.37;;;25.80;92.60;;;;;;5068556;28;20507;-73
2021/06/04 11:23:34;;;;;;;1.60;1.40;;;25.80;91.70;;;;;;5071793;28;20915;-72
2021/06/04 11:26:03;;;;;;;1.80;1.50;;;25.70;92.20;;;;;;5067688;28;20457;-72
2021/06/04 11:28:44;;;;;;;1.90;1.50;;;25.60;92.60;;;;;;5071010;28;21112;-72
2021/06/04 11:31:22;;;;;;;1.87;1.50;;;25.60;92.80;;;;;;5068716;28;20457;-74
2021/06/04 11:33:53;;;;;;;1.53;1.40;;;25.60;95.10;;;;;;5070600;28;20457;-74
2021/06/04 11:36:22;;;;;;;1.60;1.40;;;25.50;96.50;;;;;;5068786;28;20456;-72
2021/06/04 11:38:51;;;;;;;1.70;1.30;;;25.50;93.90;;;;;;5071427;28;20460;-72
2021/06/04 11:41:24;;;;;;;2.87;1.60;;;25.20;95.60;;;;;;5068665;28;21010;-72
2021/06/04 11:44:03;;;;;;;1.87;1.40;;;25.00;96.30;;;;;;5071021;28;20476;-73
2021/06/04 11:46:35;;;;;;;1.70;1.53;;;24.50;98.00;;;;;;5068515;28;20457;-74
2021/06/04 11:49:10;;;;;;;1.60;1.43;;;24.10;98.00;;;;;;5071268;28;20607;-71
2021/06/04 11:51:50;;;;;;;1.67;1.50;;;23.90;98.00;;;;;;5069068;28;20825;-71
2021/06/04 11:54:38;;;;;;;1.30;1.20;;;23.70;98.00;;;;;;5072133;28;20563;-73
2021/06/04 11:57:08;;;;;;;1.80;1.53;;;23.60;98.00;;;;;;5069283;28;20518;-73
2021/06/04 12:00:01;;;;;;;1.80;1.43;;;23.10;98.00;;;;;;5071656;28;20468;-72
2021/06/04 12:02:34;;;;;;;1.40;1.23;;;22.70;98.00;;;;;;5068513;28;20878;-73
2021/06/04 12:05:11;;;;;;;2.43;1.33;;;22.40;98.00;;;;;;5070753;28;20508;-72
2021/06/04 12:07:40;;;;;;;1.30;1.27;;;22.10;98.00;;;;;;5068301;28;20488;-72
2021/06/04 12:10:10;;;;;;;1.30;1.17;;;21.50;98.00;;;;;;5070603;28;20489;-74
2021/06/04 12:12:57;;;;;;;1.20;1.10;;;21.30;98.00;;;;;;5068131;28;20460;-72
2021/06/04 12:15:49;;;;;;;1.50;1.20;;;21.20;98.00;;;;;;5085707;28;20451;-74
2021/06/04 12:18:55;;;;;;;1.20;1.20;;;21.00;98.00;;;;;;5090820;28;20492;-72
2021/06/04 12:21:53;;;;;;;1.20;1.03;;;20.80;98.00;;;;;;5088591;28;20794;-72
2021/06/04 12:24:59;;;;;;;1.43;1.20;;;20.80;98.00;;;;;;5090843;28;20464;-73
2021/06/04 12:28:05;;;;;;;1.30;1.20;;;20.80;98.00;;;;;;5084422;28;20451;-71
2021/06/04 12:30:56;;;;;;;1.53;1.27;;;20.70;98.00;;;;;;5087895;28;20505;-71
2021/06/04 12:33:52;;;;;;;1.40;1.20;;;20.60;98.00;;;;;;5090537;28;20553;-73
2021/06/04 12:36:55;;;;;;;1.30;1.10;;;20.60;98.00;;;;;;5088382;28;20550;-72
2021/06/04 12:39:41;;;;;;;1.30;1.13;;;20.70;98.00;;;;;;5077266;28;20459;-72
2021/06/04 12:42:15;;;;;;;1.30;1.10;;;20.80;98.00;;;;;;5068021;28;20457;-71
2021/06/04 12:44:55;;;;;;;1.20;1.03;;;20.90;98.00;;;;;;5069025;28;20452;-72
2021/06/04 12:47:25;;;;;;;1.20;1.20;;;21.00;98.00;;;;;;5067127;28;20468;-73
2021/06/04 12:49:52;;;;;;;2.47;1.40;;;21.00;98.00;;;;;;5070117;28;20460;-72
2021/06/04 12:52:22;;;;;;;1.67;1.10;;;21.10;98.00;;;;;;5066637;28;20456;-72
2021/06/04 12:54:48;;;;;;;2.03;1.40;;;20.90;98.00;;;;;;5070289;28;20861;-72
2021/06/04 12:57:25;;;;;;;1.30;1.30;;;20.90;98.00;;;;;;5067380;28;20449;-72
2021/06/04 12:59:52;;;;;;;1.20;1.10;;;20.90;98.00;;;;;;5070081;28;20840;-72
2021/06/04 13:02:24;;;;;;;1.40;1.20;;;20.90;98.00;;;;;;5066797;28;21012;-72
2021/06/04 13:04:54;;;;;;;1.60;1.30;;;20.90;98.00;;;;;;5069960;28;20460;-74
2021/06/04 13:07:27;;;;;;;1.30;1.20;;;20.90;98.00;;;;;;5069899;28;20690;-73
2021/06/04 13:10:04;;;;;;;1.30;1.10;;;21.00;98.00;;;;;;5074161;28;20539;-72
2021/06/04 13:12:32;;;;;;;1.60;1.30;;;21.10;98.00;;;;;;5071637;28;20460;-72